Time;durP1;ratioP1;P1;durP2;ratioP2;P2;SDS_P1;SDS_P2;PMS_P1;PMS_P2;Temp;Humidity;BMP_temperature;BMP_pressure;BME280_temperature;BME280_humidity;BME280_pressure;Samples;Min_cycle;Max_cycle;Signal;HPM_P1;HPM_P2
2022/07/06 00:00:06;;;;;;;4.45;0.77;;;17.50;99.90;;;;;;4721594;30;20238;-73
2022/07/06 00:02:32;;;;;;;4.20;0.70;;;17.60;99.90;;;;;;4721755;30;20471;-73
2022/07/06 00:04:58;;;;;;;5.38;0.70;;;17.50;99.90;;;;;;4721763;30;20127;-73
2022/07/06 00:07:24;;;;;;;2.83;0.50;;;17.40;99.90;;;;;;4721858;30;20047;-73
2022/07/06 00:09:49;;;;;;;2.90;0.70;;;17.40;99.90;;;;;;4720690;30;20440;-73
2022/07/06 00:12:15;;;;;;;4.07;0.70;;;17.40;99.90;;;;;;4720742;30;20044;-73
2022/07/06 00:14:41;;;;;;;2.72;0.63;;;17.40;99.90;;;;;;4720281;30;20209;-73
2022/07/06 00:17:07;;;;;;;2.83;0.70;;;17.40;99.90;;;;;;4721355;30;20049;-73
2022/07/06 00:19:33;;;;;;;4.55;0.80;;;17.40;99.90;;;;;;4721033;30;20049;-73
2022/07/06 00:21:59;;;;;;;7.38;0.75;;;17.30;99.90;;;;;;4719697;30;20052;-73
2022/07/06 00:24:25;;;;;;;6.35;0.70;;;17.30;99.90;;;;;;4720865;30;20049;-73
2022/07/06 00:26:50;;;;;;;5.50;0.80;;;17.20;99.90;;;;;;4721031;30;20352;-73
2022/07/06 00:29:16;;;;;;;3.75;0.57;;;17.20;99.90;;;;;;4720409;30;20436;-73
2022/07/06 00:31:42;;;;;;;5.78;0.73;;;17.20;99.90;;;;;;4721543;30;20048;-73
2022/07/06 00:34:07;;;;;;;2.40;0.43;;;17.10;99.90;;;;;;4720269;30;20060;-73
2022/07/06 00:36:33;;;;;;;2.17;0.50;;;17.10;99.90;;;;;;4721229;30;20053;-73
2022/07/06 00:38:59;;;;;;;6.05;0.90;;;17.00;99.90;;;;;;4721300;30;20079;-73
2022/07/06 00:41:24;;;;;;;3.42;0.50;;;17.10;99.90;;;;;;4720252;30;20057;-73
2022/07/06 00:43:51;;;;;;;7.07;0.75;;;17.00;99.90;;;;;;4720751;30;20061;-73
2022/07/06 00:46:17;;;;;;;3.33;0.47;;;16.90;99.90;;;;;;4721109;30;20463;-73
2022/07/06 00:48:43;;;;;;;1.63;0.47;;;16.90;99.90;;;;;;4720962;30;20052;-73
2022/07/06 00:51:10;;;;;;;2.75;0.60;;;16.90;99.90;;;;;;4719792;30;20061;-73
2022/07/06 00:53:37;;;;;;;4.40;0.95;;;16.90;99.90;;;;;;4721148;30;20104;-72
2022/07/06 00:56:03;;;;;;;4.45;0.52;;;16.90;99.90;;;;;;4705465;30;20049;-74
2022/07/06 00:58:29;;;;;;;5.68;0.90;;;16.90;99.90;;;;;;4719928;30;20060;-73
2022/07/06 01:00:55;;;;;;;4.65;0.60;;;16.90;99.90;;;;;;4720039;30;20440;-73
2022/07/06 01:03:20;;;;;;;2.45;0.50;;;17.00;99.90;;;;;;4721024;30;20053;-73
2022/07/06 01:05:46;;;;;;;2.92;0.60;;;16.90;99.90;;;;;;4719740;30;20440;-73
2022/07/06 01:08:12;;;;;;;5.63;0.55;;;16.90;99.90;;;;;;4719568;30;20123;-73
2022/07/06 01:10:38;;;;;;;5.32;0.90;;;16.90;99.90;;;;;;4718631;30;20044;-73
2022/07/06 01:13:04;;;;;;;5.13;1.15;;;16.90;99.90;;;;;;4704307;30;20128;-73
2022/07/06 01:15:30;;;;;;;2.03;0.40;;;16.90;99.90;;;;;;4719020;30;20056;-73
2022/07/06 01:17:56;;;;;;;3.50;0.60;;;16.90;99.90;;;;;;4719626;30;20045;-73
2022/07/06 01:20:24;;;;;;;2.67;0.70;;;16.90;99.90;;;;;;4719746;30;20064;-73
2022/07/06 01:22:51;;;;;;;4.13;0.60;;;16.90;99.90;;;;;;4720416;30;20496;-73
2022/07/06 01:25:18;;;;;;;3.08;0.98;;;17.00;99.90;;;;;;4720892;30;20049;-73
2022/07/06 01:27:45;;;;;;;4.03;0.70;;;17.00;99.90;;;;;;4705173;30;20057;-73
2022/07/06 01:30:14;;;;;;;5.43;0.73;;;17.00;99.90;;;;;;4719793;30;20053;-73
2022/07/06 01:32:40;;;;;;;3.35;0.70;;;17.00;99.90;;;;;;4719815;30;20056;-73
2022/07/06 01:35:07;;;;;;;4.20;0.63;;;17.00;99.90;;;;;;4719201;30;20388;-73
2022/07/06 01:37:33;;;;;;;4.30;0.88;;;17.00;99.90;;;;;;4720449;30;20459;-73
2022/07/06 01:40:00;;;;;;;3.05;0.77;;;17.00;99.90;;;;;;4720362;30;20508;-73
2022/07/06 01:42:27;;;;;;;3.72;0.63;;;17.00;99.90;;;;;;4720597;30;20140;-73
2022/07/06 01:44:53;;;;;;;3.30;0.70;;;16.90;99.90;;;;;;4719905;30;20440;-73
2022/07/06 01:47:19;;;;;;;7.05;0.63;;;16.90;99.90;;;;;;4719373;30;20131;-73
2022/07/06 01:49:44;;;;;;;4.25;0.60;;;16.80;99.90;;;;;;4720298;30;20148;-73
2022/07/06 01:52:10;;;;;;;3.97;0.63;;;16.70;99.90;;;;;;4720679;30;20381;-74
2022/07/06 01:54:36;;;;;;;2.55;0.70;;;16.70;99.90;;;;;;4720204;30;20193;-73
2022/07/06 01:57:01;;;;;;;6.15;0.82;;;16.80;99.90;;;;;;4719322;30;20061;-74
2022/07/06 01:59:27;;;;;;;2.08;0.57;;;16.90;99.90;;;;;;4719423;30;20052;-73
2022/07/06 02:01:53;;;;;;;2.67;0.90;;;16.90;99.90;;;;;;4720360;30;20140;-73
2022/07/06 02:04:18;;;;;;;4.45;0.88;;;16.70;99.90;;;;;;4719514;30;20132;-73
2022/07/06 02:06:44;;;;;;;5.15;0.80;;;16.70;99.90;;;;;;4720249;30;20049;-73
2022/07/06 02:09:10;;;;;;;4.93;0.75;;;16.80;99.90;;;;;;4720325;30;20049;-73
2022/07/06 02:11:35;;;;;;;4.38;0.70;;;16.80;99.90;;;;;;4719296;30;20045;-73
2022/07/06 02:14:01;;;;;;;5.82;1.05;;;16.80;99.90;;;;;;4719099;30;20107;-73
2022/07/06 02:16:27;;;;;;;8.15;1.10;;;16.70;99.90;;;;;;4720033;30;20049;-73
2022/07/06 02:18:52;;;;;;;5.22;1.05;;;16.70;99.90;;;;;;4719024;30;20126;-73
2022/07/06 02:21:18;;;;;;;4.32;1.20;;;16.60;99.90;;;;;;4721425;30;20049;-73
2022/07/06 02:23:44;;;;;;;4.93;0.82;;;16.50;99.90;;;;;;4707806;30;20080;-73
2022/07/06 02:26:09;;;;;;;2.80;0.80;;;16.40;99.90;;;;;;4723691;30;20138;-73
2022/07/06 02:28:35;;;;;;;5.05;0.88;;;16.60;99.90;;;;;;4722533;30;20096;-74
2022/07/06 02:31:01;;;;;;;6.22;0.88;;;16.60;99.90;;;;;;4723602;30;20468;-73
2022/07/06 02:33:27;;;;;;;4.32;0.52;;;16.70;99.90;;;;;;4723537;30;20052;-73
2022/07/06 02:35:52;;;;;;;4.88;0.75;;;16.80;99.90;;;;;;4722275;30;20136;-73
2022/07/06 02:38:18;;;;;;;4.85;0.93;;;16.80;99.90;;;;;;4723289;30;20124;-73
2022/07/06 02:40:44;;;;;;;2.63;0.57;;;16.80;99.90;;;;;;4722088;30;20057;-73
2022/07/06 02:43:10;;;;;;;3.38;0.73;;;16.70;99.90;;;;;;4722875;30;20135;-73
2022/07/06 02:45:36;;;;;;;3.80;0.82;;;16.60;99.90;;;;;;4721958;30;20424;-73
2022/07/06 02:48:02;;;;;;;2.83;0.50;;;16.60;99.90;;;;;;4723311;30;20120;-73
2022/07/06 02:50:27;;;;;;;2.40;0.52;;;16.50;99.90;;;;;;4722859;30;20061;-73
2022/07/06 02:52:54;;;;;;;3.80;1.02;;;16.40;99.90;;;;;;4722072;30;20115;-73
2022/07/06 02:55:20;;;;;;;4.07;0.70;;;16.30;99.90;;;;;;4721984;30;20049;-73
2022/07/06 02:57:46;;;;;;;3.65;0.57;;;16.20;99.90;;;;;;4721895;30;20147;-73
2022/07/06 03:00:12;;;;;;;3.22;0.50;;;16.10;99.90;;;;;;4722794;30;20049;-73
2022/07/06 03:02:38;;;;;;;2.90;0.57;;;16.10;99.90;;;;;;4721742;30;20049;-74
2022/07/06 03:05:04;;;;;;;1.75;0.68;;;16.00;99.90;;;;;;4721927;30;20136;-73
2022/07/06 03:07:30;;;;;;;7.88;1.10;;;15.90;99.90;;;;;;4721910;30;20076;-73
2022/07/06 03:09:56;;;;;;;4.50;0.70;;;15.80;99.90;;;;;;4722959;30;20470;-73
2022/07/06 03:12:21;;;;;;;3.90;0.90;;;15.70;99.90;;;;;;4721605;30;20129;-73
2022/07/06 03:14:47;;;;;;;2.35;0.60;;;15.70;99.90;;;;;;4722158;30;20047;-73
2022/07/06 03:17:13;;;;;;;3.10;0.55;;;15.60;99.90;;;;;;4720995;30;20049;-73
2022/07/06 03:19:38;;;;;;;3.45;0.60;;;15.50;99.90;;;;;;4722253;30;20450;-73
2022/07/06 03:22:04;;;;;;;2.63;0.70;;;15.50;99.90;;;;;;4722757;30;20049;-73
2022/07/06 03:24:30;;;;;;;4.55;1.02;;;15.50;99.90;;;;;;4721510;30;20337;-73
2022/07/06 03:26:55;;;;;;;4.63;0.68;;;15.50;99.90;;;;;;4722685;30;20348;-73
2022/07/06 03:29:21;;;;;;;2.47;0.60;;;15.40;99.90;;;;;;4722407;30;20048;-73
2022/07/06 03:31:47;;;;;;;3.05;0.55;;;15.40;99.90;;;;;;4722723;30;20369;-73
2022/07/06 03:34:13;;;;;;;5.43;0.80;;;15.40;99.90;;;;;;4720529;30;20385;-73
2022/07/06 03:36:39;;;;;;;3.15;0.60;;;15.30;99.90;;;;;;4722360;30;20348;-73
2022/07/06 03:39:05;;;;;;;3.92;0.85;;;15.30;99.90;;;;;;4721187;30;20049;-73
2022/07/06 03:41:32;;;;;;;3.58;0.85;;;15.20;99.90;;;;;;4722502;30;20446;-73
2022/07/06 03:43:58;;;;;;;3.92;0.70;;;15.20;99.90;;;;;;4706075;30;20053;-73
2022/07/06 03:46:23;;;;;;;4.72;0.90;;;15.20;99.90;;;;;;4722395;30;20129;-72
2022/07/06 03:48:49;;;;;;;3.92;0.75;;;15.10;99.90;;;;;;4722027;30;20343;-73
2022/07/06 03:51:15;;;;;;;5.15;0.77;;;15.10;99.90;;;;;;4720908;30;20148;-73
2022/07/06 03:53:40;;;;;;;2.97;0.70;;;15.10;99.90;;;;;;4721922;30;20068;-72
2022/07/06 03:58:50;;;;;;;4.10;0.93;;;15.10;99.90;;;;;;4720666;30;20348;-73
2022/07/06 04:01:16;;;;;;;2.50;1.00;;;15.00;99.90;;;;;;4720996;30;20041;-73
2022/07/06 04:03:41;;;;;;;3.13;0.75;;;15.00;99.90;;;;;;4706499;30;20053;-73
2022/07/06 04:06:07;;;;;;;2.10;0.70;;;15.10;99.90;;;;;;4721796;30;20049;-72
2022/07/06 04:08:32;;;;;;;4.78;0.77;;;15.10;99.90;;;;;;4721684;30;20132;-73
2022/07/06 04:10:58;;;;;;;6.38;0.70;;;15.10;99.90;;;;;;4720789;30;20045;-73
2022/07/06 04:13:25;;;;;;;6.78;0.90;;;15.10;99.90;;;;;;4721302;30;20053;-73
2022/07/06 04:15:51;;;;;;;3.83;0.80;;;15.10;99.90;;;;;;4706609;30;20065;-73
2022/07/06 04:18:17;;;;;;;2.10;0.60;;;15.10;99.90;;;;;;4720496;30;20127;-73
2022/07/06 04:20:42;;;;;;;4.90;1.05;;;15.10;99.90;;;;;;4721814;30;20128;-73
2022/07/06 04:23:08;;;;;;;4.28;0.70;;;15.00;99.90;;;;;;4720406;30;20088;-72
2022/07/06 04:25:34;;;;;;;6.93;1.77;;;15.10;99.90;;;;;;4721580;30;20052;-73
2022/07/06 04:28:00;;;;;;;5.57;0.90;;;15.10;99.90;;;;;;4720541;30;20045;-73
2022/07/06 04:30:26;;;;;;;4.47;0.80;;;15.30;99.90;;;;;;4705805;30;20231;-73
2022/07/06 04:32:52;;;;;;;3.35;0.77;;;15.40;99.90;;;;;;4721606;30;20060;-73
2022/07/06 04:35:17;;;;;;;3.15;0.70;;;15.50;99.90;;;;;;4721343;30;20071;-73
2022/07/06 04:37:45;;;;;;;5.63;1.10;;;15.70;99.90;;;;;;4721344;30;20132;-73
2022/07/06 04:40:11;;;;;;;7.85;0.98;;;15.80;99.90;;;;;;4720301;30;20060;-73
2022/07/06 04:42:37;;;;;;;7.00;0.90;;;16.00;99.90;;;;;;4720213;30;20080;-73
2022/07/06 04:45:04;;;;;;;9.57;0.82;;;16.00;99.90;;;;;;4719688;30;20052;-73
2022/07/06 04:47:30;;;;;;;7.53;1.20;;;15.80;99.90;;;;;;4721037;30;20124;-73
2022/07/06 04:49:55;;;;;;;5.35;0.90;;;15.60;99.90;;;;;;4705200;30;20202;-73
2022/07/06 04:52:21;;;;;;;6.97;0.73;;;15.60;99.90;;;;;;4721168;30;20049;-73
2022/07/06 04:54:47;;;;;;;6.75;1.05;;;15.50;99.90;;;;;;4720001;30;20049;-73
2022/07/06 04:57:13;;;;;;;4.50;0.57;;;15.50;99.90;;;;;;4719914;30;20053;-73
2022/07/06 04:59:39;;;;;;;4.47;0.77;;;15.50;99.90;;;;;;4721226;30;20348;-72
2022/07/06 05:02:04;;;;;;;6.40;0.85;;;15.70;99.90;;;;;;4720893;30;20053;-73
2022/07/06 05:04:30;;;;;;;8.45;0.52;;;15.70;99.90;;;;;;4721079;30;20048;-74
2022/07/06 05:06:56;;;;;;;3.03;0.60;;;15.80;99.90;;;;;;4720763;30;20126;-72
2022/07/06 05:09:21;;;;;;;5.70;0.82;;;16.00;99.90;;;;;;4720669;30;20088;-73
2022/07/06 05:11:47;;;;;;;5.93;0.80;;;16.00;99.90;;;;;;4719810;30;20041;-73
2022/07/06 05:14:13;;;;;;;3.58;0.40;;;16.20;99.90;;;;;;4720455;30;20080;-73
2022/07/06 05:16:38;;;;;;;8.40;0.60;;;16.20;99.90;;;;;;4719779;30;20174;-73
2022/07/06 05:19:04;;;;;;;8.55;1.10;;;16.10;99.90;;;;;;4719602;30;20098;-73
2022/07/06 05:21:30;;;;;;;6.65;0.90;;;16.10;99.90;;;;;;4720946;30;20049;-73
2022/07/06 05:23:56;;;;;;;4.00;0.52;;;16.20;99.90;;;;;;4720344;30;20056;-74
2022/07/06 05:26:21;;;;;;;6.43;0.57;;;16.40;99.90;;;;;;4720514;30;20080;-73
2022/07/06 05:28:47;;;;;;;4.57;0.60;;;16.50;99.90;;;;;;4720706;30;20041;-73
2022/07/06 05:31:13;;;;;;;7.30;0.80;;;16.40;99.90;;;;;;4720715;30;20053;-73
2022/07/06 05:33:38;;;;;;;5.40;0.77;;;16.40;99.90;;;;;;4720587;30;20057;-73
2022/07/06 05:36:04;;;;;;;7.43;0.70;;;16.30;99.90;;;;;;4720552;30;20092;-73
2022/07/06 05:38:30;;;;;;;5.47;0.60;;;16.40;99.90;;;;;;4719720;30;20378;-74
2022/07/06 05:40:56;;;;;;;5.05;0.70;;;16.10;99.90;;;;;;4720614;30;20056;-73
2022/07/06 05:43:22;;;;;;;5.05;0.70;;;15.70;99.90;;;;;;4719007;30;20053;-73
2022/07/06 05:45:47;;;;;;;3.70;0.75;;;15.80;99.90;;;;;;4719307;30;20330;-73
2022/07/06 05:50:57;;;;;;;6.55;0.85;;;15.70;99.90;;;;;;4719483;30;20068;-72
2022/07/06 05:53:23;;;;;;;4.90;0.68;;;15.40;99.90;;;;;;4719154;30;20057;-73
2022/07/06 05:55:48;;;;;;;3.63;0.50;;;15.40;99.90;;;;;;4720509;30;20060;-73
2022/07/06 05:58:14;;;;;;;3.22;0.70;;;15.50;99.90;;;;;;4722202;30;20462;-73
2022/07/06 06:00:40;;;;;;;3.85;0.40;;;15.60;99.90;;;;;;4722352;30;20049;-73
2022/07/06 06:03:06;;;;;;;2.58;0.38;;;15.60;99.90;;;;;;4723369;30;20057;-73
2022/07/06 06:05:31;;;;;;;3.45;0.30;;;15.60;99.90;;;;;;4722353;30;20045;-73
2022/07/06 06:07:57;;;;;;;2.13;0.30;;;15.80;99.90;;;;;;4722339;30;20045;-73
2022/07/06 06:10:24;;;;;;;2.97;0.20;;;16.10;99.90;;;;;;4723275;30;20049;-73
2022/07/06 06:12:50;;;;;;;2.85;0.30;;;16.30;99.90;;;;;;4722047;30;20057;-72
2022/07/06 06:15:16;;;;;;;5.07;0.43;;;16.00;99.90;;;;;;4722747;30;20076;-73
2022/07/06 06:17:41;;;;;;;6.05;0.50;;;16.00;99.90;;;;;;4721993;30;20073;-72
2022/07/06 06:20:09;;;;;;;2.00;0.47;;;15.80;99.90;;;;;;4721829;30;20476;-72
2022/07/06 06:22:53;;;;;;;2.00;0.30;;;15.70;99.90;;;;;;4721768;30;20064;-72
2022/07/06 06:25:30;;;;;;;4.05;0.50;;;15.90;99.90;;;;;;4722831;30;20060;-72
2022/07/06 06:27:56;;;;;;;1.98;0.50;;;15.80;99.90;;;;;;4722794;30;20373;-72
2022/07/06 06:30:22;;;;;;;3.88;0.52;;;15.90;99.90;;;;;;4722730;30;20200;-73
2022/07/06 06:32:48;;;;;;;6.25;0.80;;;15.90;99.90;;;;;;4722768;30;20106;-72
2022/07/06 06:35:13;;;;;;;3.50;0.50;;;16.00;99.90;;;;;;4722085;30;21040;-72
2022/07/06 06:37:39;;;;;;;5.00;0.40;;;16.20;99.90;;;;;;4722223;30;20087;-72
2022/07/06 06:40:06;;;;;;;6.18;0.60;;;16.10;99.90;;;;;;4723414;30;20048;-72
2022/07/06 06:42:32;;;;;;;8.35;0.60;;;16.10;99.90;;;;;;4723240;30;20072;-72
2022/07/06 06:44:58;;;;;;;7.43;1.05;;;16.30;99.90;;;;;;4722632;30;20505;-72
2022/07/06 06:47:24;;;;;;;3.65;0.70;;;16.20;99.90;;;;;;4723150;30;20045;-72
2022/07/06 06:49:50;;;;;;;5.35;0.80;;;16.10;99.90;;;;;;4722881;30;20061;-72
2022/07/06 06:52:15;;;;;;;4.13;0.75;;;15.90;99.90;;;;;;4721698;30;20060;-72
2022/07/06 06:54:41;;;;;;;6.53;0.73;;;15.60;99.90;;;;;;4721223;30;20440;-72
2022/07/06 06:57:07;;;;;;;4.15;0.80;;;15.60;99.90;;;;;;4722501;30;20373;-72
2022/07/06 06:59:32;;;;;;;5.45;0.70;;;15.70;99.90;;;;;;4721047;30;20048;-72
2022/07/06 07:01:58;;;;;;;2.67;0.60;;;15.80;99.90;;;;;;4721271;30;20128;-72
2022/07/06 07:04:24;;;;;;;2.70;0.52;;;15.90;99.90;;;;;;4721974;30;20049;-72
2022/07/06 07:06:49;;;;;;;4.18;0.50;;;16.10;99.90;;;;;;4720958;30;20060;-72
2022/07/06 07:09:15;;;;;;;2.90;0.70;;;16.40;99.90;;;;;;4721246;30;20447;-72
2022/07/06 07:11:41;;;;;;;5.78;0.50;;;16.80;99.90;;;;;;4722801;30;20053;-72
2022/07/06 07:14:06;;;;;;;4.93;0.85;;;17.10;99.90;;;;;;4721638;30;20340;-72
2022/07/06 07:16:32;;;;;;;4.55;0.77;;;17.20;99.90;;;;;;4721640;30;20127;-73
2022/07/06 07:18:58;;;;;;;4.35;0.60;;;17.10;99.90;;;;;;4721905;30;20060;-72
2022/07/06 07:21:24;;;;;;;4.00;0.50;;;17.40;99.90;;;;;;4722696;30;20041;-72
2022/07/06 07:23:50;;;;;;;8.93;1.00;;;17.60;99.90;;;;;;4722467;30;20061;-72
2022/07/06 07:26:16;;;;;;;3.88;0.77;;;17.70;99.90;;;;;;4722418;30;20099;-72
2022/07/06 07:28:42;;;;;;;3.35;0.50;;;17.60;99.90;;;;;;4722327;30;20049;-72
2022/07/06 07:31:08;;;;;;;4.85;0.60;;;17.50;99.90;;;;;;4722385;30;20045;-72
2022/07/06 07:33:34;;;;;;;7.45;1.00;;;17.40;99.90;;;;;;4721526;30;20092;-72
2022/07/06 07:36:00;;;;;;;4.65;0.73;;;17.30;99.90;;;;;;4721837;30;20110;-72
2022/07/06 07:38:25;;;;;;;10.80;0.65;;;17.20;99.90;;;;;;4721181;30;20057;-72
2022/07/06 07:40:53;;;;;;;5.40;0.50;;;17.10;99.90;;;;;;4722549;30;20053;-72
2022/07/06 07:43:19;;;;;;;4.45;0.40;;;17.20;99.90;;;;;;4721777;30;20052;-73
2022/07/06 07:45:45;;;;;;;8.48;0.88;;;17.40;99.90;;;;;;4722224;30;20060;-73
2022/07/06 07:48:11;;;;;;;3.78;0.60;;;17.50;99.90;;;;;;4722287;30;20045;-73
2022/07/06 07:50:37;;;;;;;8.18;0.75;;;17.50;99.90;;;;;;4721005;30;20061;-73
2022/07/06 07:53:03;;;;;;;6.95;0.82;;;17.80;99.90;;;;;;4706776;30;20049;-72
2022/07/06 07:55:28;;;;;;;6.68;0.98;;;18.10;99.90;;;;;;4722199;30;20132;-73
2022/07/06 07:57:54;;;;;;;6.32;0.55;;;18.00;99.90;;;;;;4721114;30;20049;-72
2022/07/06 08:00:21;;;;;;;6.85;0.70;;;18.40;99.90;;;;;;4720852;30;20095;-75
2022/07/06 08:02:47;;;;;;;6.90;0.57;;;18.50;99.90;;;;;;4706602;30;20368;-74
2022/07/06 08:05:15;;;;;;;5.68;0.50;;;18.50;99.90;;;;;;4722006;30;20049;-75
2022/07/06 08:07:41;;;;;;;5.55;0.40;;;18.50;99.90;;;;;;4721016;30;20064;-73
2022/07/06 08:10:08;;;;;;;2.78;0.68;;;18.40;99.90;;;;;;4722002;30;20049;-74
2022/07/06 08:12:33;;;;;;;6.85;0.68;;;18.30;99.90;;;;;;4709065;30;20141;-78
2022/07/06 08:14:59;;;;;;;3.53;0.50;;;18.00;99.90;;;;;;4725125;30;20103;-76
2022/07/06 08:17:25;;;;;;;5.82;0.50;;;17.90;99.90;;;;;;4720639;30;20056;-76
2022/07/06 08:19:50;;;;;;;5.30;0.40;;;18.10;99.90;;;;;;4720620;30;20067;-75
2022/07/06 08:22:16;;;;;;;3.63;0.47;;;18.10;99.90;;;;;;4721681;30;20336;-76
2022/07/06 08:24:42;;;;;;;4.97;0.40;;;18.40;99.90;;;;;;4720537;30;20455;-75
2022/07/06 08:27:07;;;;;;;4.75;0.50;;;18.40;99.90;;;;;;4720556;30;20052;-75
2022/07/06 08:29:33;;;;;;;3.25;0.40;;;18.30;99.90;;;;;;4720439;30;20440;-76
2022/07/06 08:31:59;;;;;;;6.15;0.40;;;18.20;99.90;;;;;;4720589;30;20131;-76
2022/07/06 08:34:25;;;;;;;2.17;0.30;;;18.10;99.90;;;;;;4720492;30;20136;-74
2022/07/06 08:36:50;;;;;;;2.80;0.40;;;18.00;99.90;;;;;;4721394;30;20049;-76
2022/07/06 08:39:17;;;;;;;4.18;0.40;;;18.00;99.90;;;;;;4721517;30;20403;-76
2022/07/06 08:41:47;;;;;;;5.57;0.43;;;18.20;99.90;;;;;;4720475;30;20041;-77
2022/07/06 08:44:15;;;;;;;2.13;0.40;;;18.50;99.90;;;;;;4719898;30;20060;-76
2022/07/06 08:46:41;;;;;;;1.90;0.38;;;18.70;99.90;;;;;;4721412;30;20103;-76
2022/07/06 08:49:08;;;;;;;2.90;0.40;;;18.90;99.90;;;;;;4719877;30;20428;-76
2022/07/06 08:51:36;;;;;;;3.85;0.45;;;18.90;99.90;;;;;;4720195;30;20045;-76
2022/07/06 08:54:05;;;;;;;4.05;0.40;;;19.00;99.90;;;;;;4721032;30;20079;-76
2022/07/06 08:56:31;;;;;;;2.85;0.40;;;19.20;99.90;;;;;;4721196;30;20076;-75
2022/07/06 08:58:57;;;;;;;4.10;0.30;;;19.30;99.90;;;;;;4705480;30;20053;-76
2022/07/06 09:01:23;;;;;;;3.60;0.22;;;19.20;99.90;;;;;;4721254;30;20045;-75
2022/07/06 09:03:50;;;;;;;2.50;0.40;;;19.20;99.90;;;;;;4705363;30;20064;-76
2022/07/06 09:06:26;;;;;;;3.33;0.30;;;19.40;99.90;;;;;;4719900;30;20044;-76
2022/07/06 09:08:55;;;;;;;3.50;0.20;;;19.80;99.90;;;;;;4720012;30;20044;-75
2022/07/06 09:11:22;;;;;;;2.60;0.30;;;19.70;99.90;;;;;;4719722;30;20049;-76
2022/07/06 09:13:48;;;;;;;5.57;0.50;;;20.00;99.90;;;;;;4720438;30;20092;-76
2022/07/06 09:16:16;;;;;;;3.03;0.70;;;19.90;99.90;;;;;;4719884;30;20329;-76
2022/07/06 09:18:46;;;;;;;2.45;0.50;;;19.40;99.90;;;;;;4720817;30;20053;-76
2022/07/06 09:21:21;;;;;;;5.57;0.40;;;19.00;99.90;;;;;;4720735;30;20045;-73
2022/07/06 09:23:52;;;;;;;2.63;0.22;;;18.50;99.90;;;;;;4720764;30;20056;-74
2022/07/06 09:26:18;;;;;;;1.38;0.30;;;18.40;99.90;;;;;;4720943;30;20053;-73
2022/07/06 09:28:45;;;;;;;4.78;0.50;;;18.30;99.90;;;;;;4720509;30;20045;-73
2022/07/06 09:31:11;;;;;;;5.47;0.65;;;18.20;99.90;;;;;;4720228;30;20106;-73
2022/07/06 09:33:37;;;;;;;3.00;0.38;;;18.20;99.90;;;;;;4705034;30;20059;-73
2022/07/06 09:36:05;;;;;;;3.17;0.52;;;18.40;99.90;;;;;;4722157;30;20055;-73
2022/07/06 09:38:32;;;;;;;3.50;0.40;;;18.60;99.90;;;;;;4720998;30;20053;-73
2022/07/06 09:40:57;;;;;;;3.05;0.40;;;18.90;99.90;;;;;;4719382;30;20140;-72
2022/07/06 09:43:24;;;;;;;1.75;0.40;;;19.20;99.90;;;;;;4720142;30;20148;-74
2022/07/06 09:45:54;;;;;;;4.55;0.40;;;19.50;99.90;;;;;;4719583;30;20136;-72
2022/07/06 09:48:22;;;;;;;2.42;0.38;;;20.00;99.90;;;;;;4720617;30;20052;-74
2022/07/06 09:51:14;;;;;;;5.95;0.50;;;20.10;99.90;;;;;;4720193;30;20065;-73
2022/07/06 09:53:40;;;;;;;6.25;0.60;;;19.60;99.90;;;;;;4717768;30;20057;-72
2022/07/06 09:56:06;;;;;;;5.60;0.50;;;19.70;99.90;;;;;;4720507;30;20056;-73
2022/07/06 09:58:31;;;;;;;4.55;0.75;;;19.80;99.90;;;;;;4720289;30;20077;-72
2022/07/06 10:00:58;;;;;;;4.55;0.60;;;19.80;99.90;;;;;;4720484;30;20052;-72
2022/07/06 10:03:24;;;;;;;4.03;0.40;;;19.60;99.90;;;;;;4720301;30;20052;-73
2022/07/06 10:05:49;;;;;;;2.85;0.30;;;19.50;99.90;;;;;;4719557;30;20064;-73
2022/07/06 10:08:17;;;;;;;3.67;0.77;;;19.60;99.90;;;;;;4720374;30;20451;-72
2022/07/06 10:10:43;;;;;;;4.13;0.32;;;19.40;99.90;;;;;;4719230;30;20049;-71
2022/07/06 10:13:10;;;;;;;2.95;0.40;;;19.30;99.90;;;;;;4720120;30;20052;-72
2022/07/06 10:15:38;;;;;;;4.10;0.40;;;19.30;99.90;;;;;;4719062;30;20158;-74
2022/07/06 10:18:06;;;;;;;4.88;0.30;;;19.40;99.90;;;;;;4720064;30;20096;-74
2022/07/06 10:20:37;;;;;;;3.22;0.60;;;19.50;99.90;;;;;;4719401;30;20064;-84
2022/07/06 10:23:05;;;;;;;6.78;0.50;;;19.10;99.90;;;;;;4720104;30;20111;-73
2022/07/06 10:25:32;;;;;;;3.53;0.47;;;19.10;99.90;;;;;;4720114;30;20114;-73
2022/07/06 10:27:59;;;;;;;4.90;0.30;;;19.20;99.90;;;;;;4720401;30;20099;-75
2022/07/06 10:30:25;;;;;;;4.63;0.30;;;19.40;99.90;;;;;;4720299;30;20111;-74
2022/07/06 10:32:51;;;;;;;6.47;0.50;;;19.80;99.90;;;;;;4718973;30;20053;-74
2022/07/06 10:35:20;;;;;;;3.15;0.30;;;20.40;99.90;;;;;;4720231;30;20128;-72
2022/07/06 10:38:02;;;;;;;3.08;0.30;;;20.40;99.90;;;;;;4719401;30;20048;-74
2022/07/06 10:43:20;;;;;;;2.80;0.32;;;20.50;99.90;;;;;;4721128;30;20073;-73
2022/07/06 10:45:46;;;;;;;2.33;0.47;;;20.80;99.90;;;;;;4730402;30;20040;-73
2022/07/06 10:48:11;;;;;;;2.42;0.47;;;21.10;99.90;;;;;;4740622;30;20124;-73
2022/07/06 10:50:44;;;;;;;6.18;0.47;;;21.40;99.90;;;;;;4740033;30;20060;-80
2022/07/06 10:53:27;;;;;;;4.00;0.50;;;21.50;99.80;;;;;;4728073;30;20065;-80
2022/07/06 10:55:55;;;;;;;3.60;0.52;;;21.50;99.90;;;;;;4741697;30;20139;-76
2022/07/06 10:58:41;;;;;;;6.53;0.70;;;21.20;99.90;;;;;;4731193;30;20059;-72
2022/07/06 11:01:11;;;;;;;6.23;0.60;;;21.00;99.90;;;;;;4721822;30;20068;-74
2022/07/06 11:03:42;;;;;;;4.72;0.47;;;20.90;99.90;;;;;;4722125;30;20504;-73
2022/07/06 11:06:12;;;;;;;5.03;0.52;;;20.50;99.90;;;;;;4722404;30;20049;-74
2022/07/06 11:08:54;;;;;;;6.32;0.82;;;20.20;99.90;;;;;;4722798;30;20053;-74
2022/07/06 11:11:21;;;;;;;5.60;0.50;;;19.90;99.90;;;;;;4721834;30;20060;-75
2022/07/06 11:13:51;;;;;;;3.80;0.63;;;19.70;99.90;;;;;;4722475;30;20049;-74
2022/07/06 11:16:18;;;;;;;4.88;1.05;;;19.80;99.90;;;;;;4721663;30;20049;-76
2022/07/06 11:18:49;;;;;;;4.57;0.50;;;19.80;99.90;;;;;;4722732;30;20160;-75
2022/07/06 11:21:21;;;;;;;3.42;0.50;;;20.00;99.90;;;;;;4722555;30;20463;-75
2022/07/06 11:23:49;;;;;;;3.63;0.40;;;20.40;99.90;;;;;;4725204;30;20063;-74
2022/07/06 11:26:15;;;;;;;7.03;0.80;;;20.80;99.90;;;;;;4721581;30;20041;-74
2022/07/06 11:28:41;;;;;;;3.08;0.30;;;21.00;99.70;;;;;;4721479;30;20087;-73
2022/07/06 11:31:06;;;;;;;4.30;0.50;;;20.70;99.90;;;;;;4721556;30;20081;-74
2022/07/06 11:33:32;;;;;;;3.22;0.52;;;20.50;99.90;;;;;;4721735;30;20089;-74
2022/07/06 11:36:19;;;;;;;2.75;0.50;;;20.60;99.90;;;;;;4722456;30;20053;-74
2022/07/06 11:38:47;;;;;;;4.47;0.52;;;20.30;99.90;;;;;;4722462;30;20059;-73
2022/07/06 11:41:14;;;;;;;3.28;0.40;;;20.40;99.90;;;;;;4721679;30;20052;-71
2022/07/06 11:43:47;;;;;;;59.75;5.40;;;20.80;99.20;;;;;;4721665;30;20099;-72
2022/07/06 11:46:23;;;;;;;3.88;0.50;;;21.60;99.50;;;;;;4722308;30;20463;-71
2022/07/06 11:48:49;;;;;;;;;;;22.20;99.00;;;;;;4722776;30;20049;-75
2022/07/06 11:51:16;;;;;;;5.97;0.82;;;22.20;99.30;;;;;;4722214;30;19933;-74
2022/07/06 11:53:50;;;;;;;7.47;1.23;;;22.50;99.70;;;;;;4721479;30;20131;-74
2022/07/06 11:56:18;;;;;;;4.50;0.60;;;22.50;99.10;;;;;;4722316;30;20077;-74
2022/07/06 11:58:46;;;;;;;10.75;1.73;;;22.40;99.10;;;;;;4722185;30;20045;-78
2022/07/06 12:01:14;;;;;;;6.32;0.60;;;22.60;99.10;;;;;;4722121;30;20364;-80
2022/07/06 12:03:39;;;;;;;1.83;0.43;;;23.00;99.10;;;;;;4722068;30;20128;-74
2022/07/06 12:06:11;;;;;;;7.15;0.50;;;23.10;98.70;;;;;;4721843;30;20467;-74
2022/07/06 12:08:42;;;;;;;4.22;0.60;;;22.50;98.90;;;;;;4721308;30;20045;-74
2022/07/06 12:11:08;;;;;;;3.65;0.50;;;21.60;99.00;;;;;;4720819;30;20397;-74
2022/07/06 12:13:41;;;;;;;2.85;0.57;;;21.50;99.10;;;;;;4721598;30;20045;-75
2022/07/06 12:16:11;;;;;;;3.45;0.55;;;21.80;98.90;;;;;;4720650;30;20115;-74
2022/07/06 12:18:38;;;;;;;2.70;0.40;;;21.80;98.80;;;;;;4721770;30;20057;-74
2022/07/06 12:21:07;;;;;;;5.55;0.32;;;21.70;98.90;;;;;;4706276;30;20111;-74
2022/07/06 12:23:45;;;;;;;3.08;0.40;;;21.70;98.90;;;;;;4721611;30;20079;-74
2022/07/06 12:26:12;;;;;;;5.07;0.40;;;21.80;98.30;;;;;;4723427;30;20060;-74
2022/07/06 12:28:37;;;;;;;1.90;0.38;;;21.60;98.60;;;;;;4721543;30;20048;-74
2022/07/06 12:31:04;;;;;;;1.42;0.30;;;21.50;98.90;;;;;;4721785;30;20033;-84
2022/07/06 12:33:30;;;;;;;4.22;0.63;;;21.40;99.30;;;;;;4720329;30;20060;-72
2022/07/06 12:35:56;;;;;;;3.25;0.43;;;21.20;99.10;;;;;;4705816;30;20056;-75
2022/07/06 12:38:26;;;;;;;2.55;0.35;;;21.20;99.30;;;;;;4720544;30;20052;-73
2022/07/06 12:40:53;;;;;;;4.75;0.43;;;21.00;99.20;;;;;;4720462;30;20118;-73
2022/07/06 12:43:41;;;;;;;2.47;0.38;;;21.10;99.50;;;;;;4721322;30;20386;-73
2022/07/06 12:46:32;;;;;;;1.73;0.50;;;21.30;99.30;;;;;;4721096;30;20056;-73
2022/07/06 12:48:59;;;;;;;2.28;0.40;;;21.70;99.30;;;;;;4721101;30;20049;-73
2022/07/06 12:51:25;;;;;;;1.80;0.40;;;21.90;99.30;;;;;;4721284;30;20049;-73
2022/07/06 12:53:51;;;;;;;4.72;0.50;;;21.50;99.30;;;;;;4720975;30;20057;-73